• Join FlightAware (Why Join?)
  • Login
  • US Flag 
11:38AM EDT


 

Airport Tracker/Info


-or-


 

Live Flight TrackerFlight Track Log ✈ N2173F ✈ 05-Apr-2014 ✈ KCTY - KTLH

Flight Track Log - Related Links

Times and Time Zones

All times are in EDT time to prevent confusion due to time zone crossing. See the N2173F flight status page for this flight to view local times or setup timezone preferences in your user account.

Time Position Orientation Groundspeed Altitude Reporting Facility
EDT Latitude Longitude Course Direction KTS MPH feet Rate Location/Type
06:44PM 29.0639 -82.7333 330° Northwest 131 151 4,500  Level Jacksonville Center
06:45PM 29.1036 -82.7594 330° Northwest 133 153 4,200 -240 Descending Jacksonville Center
06:46PM 29.1350 -82.7761 335° Northwest 143 165 4,000 -120 Descending Jacksonville Center
06:47PM 29.1706 -82.7975 332° Northwest 138 159 4,000 -60 Level Jacksonville Center
06:48PM 29.1975 -82.8094 339° North 145 167 3,900  Descending Jacksonville Center
06:48PM 29.2058 -82.8189 315° West 131 151 4,000  Climbing Jacksonville Center
06:49PM 29.2289 -82.8306 336° Northwest 139 160 3,900  Descending Jacksonville Center
06:49PM 29.2353 -82.8331 341° North 133 153 4,000  Climbing Jacksonville Center
06:50PM 29.2603 -82.8497 330° Northwest 134 154 3,900  Descending Jacksonville Center
06:50PM 29.2686 -82.8544 334° Northwest 132 152 4,000  Climbing Jacksonville Center
06:51PM 29.2936 -82.8689 333° Northwest 134 154 3,900  Descending Jacksonville Center
06:51PM 29.3061 -82.8783 327° Northwest 132 152 4,000  Climbing Jacksonville Center
06:52PM 29.3250 -82.8878 336° Northwest 134 154 3,900  Descending Jacksonville Center
06:52PM 29.3394 -82.8972 330° Northwest 131 151 4,000  Climbing Jacksonville Center
06:53PM 29.3583 -82.9069 336° Northwest 134 154 3,900  Descending Jacksonville Center
06:53PM 29.3708 -82.9164 327° Northwest 129 148 4,000  Climbing Jacksonville Center
06:54PM 29.3917 -82.9258 338° Northwest 134 154 3,900 -120 Descending Jacksonville Center
06:55PM 29.4253 -82.9450 334° Northwest 134 154 3,900  Level Jacksonville Center
06:56PM 29.4564 -82.9642 332° Northwest 134 154 4,000  Climbing Jacksonville Center
06:57PM 29.4878 -82.9833 332° Northwest 134 154 4,000 -60 Level Jacksonville Center
06:58PM 29.5192 -83.0025 332° Northwest 122 140 3,900 -60 Descending Jacksonville Center
06:59PM 29.5503 -83.0214 332° Northwest 122 140 3,900  Level Jacksonville Center
07:00PM 29.5794 -83.0383 333° Northwest 122 140 3,900  Level Jacksonville Center
07:01PM 29.6067 -83.0644 320° Northwest 126 145 3,900  Level Jacksonville Center
07:02PM 29.6297 -83.0956 310° West 127 146 3,900  Level Jacksonville Center
07:03PM 29.6461 -83.1292 299° West 119 137 3,900  Level Jacksonville Center
07:04PM 29.6692 -83.1603 310° West 127 146 3,900  Level Jacksonville Center
07:05PM 29.6878 -83.1939 303° West 118 136 3,900  Level Jacksonville Center
07:06PM 29.7067 -83.2250 305° West 125 144 3,900  Level Jacksonville Center
07:07PM 29.7272 -83.2561 307° West 125 144 3,900  Level Jacksonville Center
07:08PM 29.7461 -83.2872 305° West 125 144 4,000  Climbing Jacksonville Center
07:09PM 29.7669 -83.3208 306° West 125 144 4,000  Level Jacksonville Center
07:10PM 29.7856 -83.3519 305° West 125 144 4,000  Level Jacksonville Center
07:11PM 29.8064 -83.3833 307° West 125 144 4,000  Level Jacksonville Center
07:12PM 29.8250 -83.4169 303° West 125 144 4,000  Level Jacksonville Center
07:13PM 29.8456 -83.4481 307° West 125 144 4,000  Level Jacksonville Center
07:14PM 29.8644 -83.4794 305° West 125 144 4,000  Level Jacksonville Center
07:15PM 29.8850 -83.5106 307° West 125 144 4,000  Level Jacksonville Center
07:16PM 29.9036 -83.5419 304° West 125 144 4,000  Level Jacksonville Center
07:17PM 29.9222 -83.5731 305° West 120 138 4,000  Level Jacksonville Center
07:18PM 29.9431 -83.6044 307° West 120 138 4,000  Level Jacksonville Center
07:19PM 29.9617 -83.6381 303° West 125 144 4,000  Level Jacksonville Center
07:20PM 29.9822 -83.6694 307° West 125 144 4,000  Level Jacksonville Center
07:21PM 30.0008 -83.7033 302° West 125 144 4,000  Level Jacksonville Center
07:22PM 30.0217 -83.7322 310° West 120 138 4,000  Level Jacksonville Center
07:23PM 30.0381 -83.7658 299° West 120 138 4,000  Level Jacksonville Center
07:24PM 30.0567 -83.7972 304° West 120 138 4,000  Level Jacksonville Center
07:25PM 30.0772 -83.8264 309° West 120 138 4,000  Level Jacksonville Center
07:26PM 30.0978 -83.8600 305° West 120 138 4,000  Level Jacksonville Center
07:27PM 30.1186 -83.8892 310° West 120 138 4,000  Level Jacksonville Center
07:28PM 30.1350 -83.9231 299° West 120 138 4,000  Level Jacksonville Center
07:30PM 30.1699 -83.9787 306° West  Level FlightAware Approximate
07:37PM 30.3262 -84.2369 313° West  Level FlightAware Approximate
07:38PM 30.3517 -84.2710 295° West  Level FlightAware Approximate
07:39PM 30.3682 -84.3122 295° West  Level FlightAware Approximate
07:40PM 30.3833 -84.3500 295° West  Level FlightAware Approximate
07:41PM 30.3967 -84.3509 North  Level Estimated
07:42PM 30.3967 -84.3509 177° South  Level Estimated
07:43PM 30.3967 -84.3509 295° West  Level Estimated
07:44PM 30.3967 -84.3509 177° South  Level Estimated
07:45PM 30.3967 -84.3509 177° South  Level Estimated
07:46PM 30.3967 -84.3509 295° West  Level Estimated
07:47PM 30.3967 -84.3509 177° South  Level Estimated
07:48PM 30.3967 -84.3509 177° South  Level Estimated
07:49PM 30.3967 -84.3509 295° West  Level Estimated
07:50PM 30.3967 -84.3509 177° South  Level Estimated
07:51PM 30.3967 -84.3509 177° South  Level Estimated
07:52PM 30.3967 -84.3509 295° West  Level Estimated
07:53PM 30.3967 -84.3509 177° South  Level Estimated
07:54PM 30.3967 -84.3509 177° South  Level Estimated